LFBC 181530Z AUTO 33014KT 290V010 9999 FEW022 SCT064 23/16 Q1018 NOSIG

ElémentsDécodage
LFBC Station météo située sur l'aérodrome de CAZAUX
181530Z émis le 18 du mois à 15h30 UTC
AUTO Bulletin édité par un automate
33014KT vent du 330°, 14 noeuds
290V010 vent de direction variable entre 290° et 010°
9999 visibilité horizontale supérieure à 10 Km
FEW022 nuages rares (1/8 à 2/8) à 2200 pieds
SCT064 nuages épars (3/8 à 4/8) à 6400 pieds
23/16 température 23°C, point de rosée 16°C
 soit une humidité relative de 65%
Q1018 la pression au niveau de la mer (QNH) est de 1018 hPa
NOSIG Pas de changement significatif prévu au cours des deux heures suivant l'heure de l'observation